KEST/EST METAR and TAF weather

Enter ICAO airport designator
Station Type Date Time Source
KEST METAR 2019/06/27 09:52 UTC NOAA

KEST 270952Z AUTO 14003KT 10SM SCT035 18/17 A3004 RMK AO2 SLP165 T01780167


Station Type Date Time Source
KEST Decoded METAR 2019/06/27 09:52 UTC NOAA

ESTHERVILLE MUNICIPAL AIRPORT , IA, United States (KEST) 43-24N 94-45W 401M
Jun 27, 2019 - 05:52 AM EDT / 2019.06.27 0952 UTC
Wind: from the SE (140 degrees) at 3 MPH (3 KT):0
Visibility: 10 mile(s):0
Sky conditions: partly cloudy
Temperature: 64.0 F (17.8 C)
Dew Point: 62.1 F (16.7 C)
Relative Humidity: 93%
Pressure (altimeter): 30.04 in. Hg (1017 hPa)
ob: KEST 270952Z AUTO 14003KT 10SM SCT035 18/17 A3004 RMK AO2 SLP165 T01780167
cycle: 10

Station Type Date Time Source
KEST TAF UTC NOAA

Error!

Example: see airport list